Chengwatana, Minnesota
Current Conditions -  °F | °C
As of 10:15 AM on Saturday 25 Oct 2014 (Local Time) from KROS Reporting Station
Scattered Clouds Scattered Clouds  
Wind Chill: 52°   Ceiling: Unl
Heat Index: 52°   Visibility: 10mi
Dew Point: 35°   Wind: 10mph
Humidity: 53%   Direction: 290°WNW
Pressure: 30.02"   Gusts: NA
Location:  45.8356°N, 92.9649°W
Report Text: KROS 251515Z AUTO 29009KT 10SM SCT095 11/02 A3002 RMK AO2 T01120018
Loading
Personal Weather Stations






























Interactive Weather Map
Tropical Storm Tracking
New forecast layout! Learn more

10-Day Weather Forecast

Advertisements
Track Severe Weather on mobile